Time;durP1;ratioP1;P1;durP2;ratioP2;P2;SDS_P1;SDS_P2;PMS_P1;PMS_P2;Temp;Humidity;BMP_temperature;BMP_pressure;BME280_temperature;BME280_humidity;BME280_pressure;Samples;Min_cycle;Max_cycle;Signal;HPM_P1;HPM_P2
2021/11/02 00:01:20;;;;;;;;;;;17.10;63.70;;;;;;4972967;28;19980;-50
2021/11/02 00:03:47;;;;;;;;;;;17.10;63.50;;;;;;4975318;28;20385;-47
2021/11/02 00:06:14;;;;;;;;;;;17.10;64.40;;;;;;4975305;28;19926;-49
2021/11/02 00:08:41;;;;;;;;;;;17.10;64.20;;;;;;4975214;28;19930;-50
2021/11/02 00:11:08;;;;;;;;;;;17.10;64.20;;;;;;4975518;28;19962;-46
2021/11/02 00:13:38;;;;;;;;;;;17.10;64.00;;;;;;4975190;28;20012;-48
2021/11/02 00:16:06;;;;;;;;;;;17.00;63.90;;;;;;4973634;28;19930;-50
2021/11/02 00:18:35;;;;;;;;;;;17.00;63.70;;;;;;4975174;28;19926;-48
2021/11/02 00:21:02;;;;;;;;;;;17.00;63.90;;;;;;4975100;28;19926;-49
2021/11/02 00:23:35;;;;;;;;;;;17.00;64.00;;;;;;4974977;28;19926;-48
2021/11/02 00:26:03;;;;;;;;;;;17.00;63.60;;;;;;4975350;28;19926;-47
2021/11/02 00:28:30;;;;;;;;;;;17.00;63.80;;;;;;4975262;28;20266;-48
2021/11/02 00:30:57;;;;;;;;;;;17.00;63.40;;;;;;4973709;28;19926;-46
2021/11/02 00:33:24;;;;;;;;;;;17.00;62.30;;;;;;4975227;28;19948;-47
2021/11/02 00:35:51;;;;;;;;;;;17.00;63.50;;;;;;4975253;28;20001;-46
2021/11/02 00:38:19;;;;;;;;;;;16.90;63.10;;;;;;4974920;28;19926;-47
2021/11/02 00:40:47;;;;;;;;;;;17.00;62.90;;;;;;4975172;28;20018;-47
2021/11/02 00:43:14;;;;;;;;;;;16.90;62.30;;;;;;4974887;28;19973;-46
2021/11/02 00:45:41;;;;;;;;;;;16.90;62.40;;;;;;4973578;28;20017;-48
2021/11/02 00:48:12;;;;;;;;;;;16.90;62.10;;;;;;4975001;28;20068;-48
2021/11/02 00:50:40;;;;;;;;;;;16.90;62.10;;;;;;4974780;28;19926;-46
2021/11/02 00:53:07;;;;;;;;;;;16.90;61.50;;;;;;4974777;28;19980;-46
2021/11/02 00:55:35;;;;;;;;;;;16.80;61.60;;;;;;4974672;28;19926;-47
2021/11/02 00:58:05;;;;;;;;;;;16.90;62.30;;;;;;4975023;28;20033;-48
2021/11/02 01:00:33;;;;;;;;;;;16.90;61.30;;;;;;4973026;28;19984;-47
2021/11/02 01:03:02;;;;;;;;;;;16.80;62.70;;;;;;4974623;28;19926;-49
2021/11/02 01:05:29;;;;;;;;;;;16.90;61.30;;;;;;4974879;28;19973;-49
2021/11/02 01:07:56;;;;;;;;;;;16.80;60.90;;;;;;4974915;28;19926;-46
2021/11/02 01:10:23;;;;;;;;;;;16.80;61.30;;;;;;4974837;28;19989;-46
2021/11/02 01:12:51;;;;;;;;;;;16.90;61.40;;;;;;4974584;28;19926;-50
2021/11/02 01:15:19;;;;;;;;;;;16.80;61.20;;;;;;4973230;28;19938;-48
2021/11/02 01:17:47;;;;;;;;;;;16.90;61.30;;;;;;4974533;28;19976;-48
2021/11/02 01:20:14;;;;;;;;;;;16.80;61.20;;;;;;4974554;28;20464;-46
2021/11/02 01:22:42;;;;;;;;;;;16.80;61.80;;;;;;4974489;28;19926;-47
2021/11/02 01:25:09;;;;;;;;;;;16.80;60.40;;;;;;4974615;28;19977;-47
2021/11/02 01:27:37;;;;;;;;;;;16.80;61.20;;;;;;4974486;28;19926;-48
2021/11/02 01:30:04;;;;;;;;;;;16.80;61.10;;;;;;4977369;28;20020;-47
2021/11/02 01:32:31;;;;;;;;;;;16.80;61.30;;;;;;4992387;28;19933;-48
2021/11/02 01:35:00;;;;;;;;;;;16.80;60.90;;;;;;4978081;28;19927;-47
2021/11/02 01:37:27;;;;;;;;;;;16.80;61.50;;;;;;4978332;28;20338;-49
2021/11/02 01:39:54;;;;;;;;;;;16.80;61.60;;;;;;4977955;28;19933;-49
2021/11/02 01:42:24;;;;;;;;;;;16.80;60.70;;;;;;4978239;28;19985;-48
2021/11/02 01:44:53;;;;;;;;;;;16.80;60.90;;;;;;4977898;28;19969;-53
2021/11/02 01:47:21;;;;;;;;;;;16.80;61.10;;;;;;4976258;28;19969;-51
2021/11/02 01:49:48;;;;;;;;;;;16.80;61.30;;;;;;4977721;28;20021;-50
2021/11/02 01:52:15;;;;;;;;;;;16.70;61.10;;;;;;4978027;28;19989;-51
2021/11/02 01:54:43;;;;;;;;;;;16.70;61.00;;;;;;4977314;28;19930;-52
2021/11/02 01:57:10;;;;;;;;;;;16.70;61.00;;;;;;4978200;28;20408;-47
2021/11/02 01:59:38;;;;;;;;;;;16.70;61.30;;;;;;4977661;28;19981;-48
2021/11/02 02:02:08;;;;;;;;;;;16.70;60.90;;;;;;4976451;28;19926;-50
2021/11/02 02:04:40;;;;;;;;;;;16.70;61.30;;;;;;4977568;28;19926;-50
2021/11/02 02:07:22;;;;;;;;;;;16.70;61.10;;;;;;4977540;28;19926;-51
2021/11/02 02:09:52;;;;;;;;;;;16.70;60.80;;;;;;4978040;28;19954;-50
2021/11/02 02:12:27;;;;;;;;;;;16.70;61.00;;;;;;4977757;28;20089;-47
2021/11/02 02:15:13;;;;;;;;;;;16.70;61.00;;;;;;4992189;28;20024;-52
2021/11/02 02:18:00;;;;;;;;;;;16.70;61.00;;;;;;4975638;28;19974;-52
2021/11/02 02:20:57;;;;;;;;;;;16.70;61.10;;;;;;4977295;28;20033;-52
2021/11/02 02:23:47;;;;;;;;;;;16.60;61.80;;;;;;4977465;28;19941;-50
2021/11/02 02:26:32;;;;;;;;;;;16.70;61.10;;;;;;4977540;28;19961;-51
2021/11/02 02:29:03;;;;;;;;;;;16.70;61.10;;;;;;4977074;28;20389;-52
2021/11/02 02:31:32;;;;;;;;;;;16.70;60.90;;;;;;4975796;28;19926;-49
2021/11/02 02:34:00;;;;;;;;;;;16.70;60.60;;;;;;4977007;28;20416;-52
2021/11/02 02:36:27;;;;;;;;;;;16.60;60.40;;;;;;4976964;28;19926;-50
2021/11/02 02:38:56;;;;;;;;;;;16.70;61.60;;;;;;4976822;28;20455;-52
2021/11/02 02:41:23;;;;;;;;;;;16.70;61.00;;;;;;4977178;28;19933;-49
2021/11/02 02:43:51;;;;;;;;;;;16.60;61.00;;;;;;4976658;28;19926;-49
2021/11/02 02:46:19;;;;;;;;;;;16.60;61.40;;;;;;4975120;28;19934;-50
2021/11/02 02:48:46;;;;;;;;;;;16.60;61.20;;;;;;4976665;28;19926;-51
2021/11/02 02:51:14;;;;;;;;;;;16.60;60.60;;;;;;4976691;28;19973;-51
2021/11/02 02:53:45;;;;;;;;;;;16.60;61.00;;;;;;4976409;28;19977;-49
2021/11/02 02:56:13;;;;;;;;;;;16.60;61.30;;;;;;4976921;28;19958;-51
2021/11/02 02:58:42;;;;;;;;;;;16.60;61.50;;;;;;4976880;28;20003;-47
2021/11/02 03:01:12;;;;;;;;;;;16.60;60.70;;;;;;4975303;28;20000;-53
2021/11/02 03:03:44;;;;;;;;;;;16.60;60.40;;;;;;4976468;28;20389;-48
2021/11/02 03:06:12;;;;;;;;;;;16.60;61.30;;;;;;4976769;28;19926;-48
2021/11/02 03:08:39;;;;;;;;;;;16.50;60.70;;;;;;4976339;28;19937;-48
2021/11/02 03:11:07;;;;;;;;;;;16.50;60.20;;;;;;4977423;28;19926;-46
2021/11/02 03:13:36;;;;;;;;;;;16.50;60.80;;;;;;4991112;28;20382;-52
2021/11/02 03:16:06;;;;;;;;;;;16.50;59.70;;;;;;4976531;28;20039;-50
2021/11/02 03:49:00;;;;;;;;;;;16.50;60.40;;;;;;4973929;28;19926;-47
2021/11/02 04:00:18;;;;;;;;;;;16.50;60.50;;;;;;4975013;28;19989;-47
2021/11/02 05:06:56;;;;;;;;;;;16.50;60.00;;;;;;4973736;28;19926;-48
2021/11/02 05:46:36;;;;;;;;;;;16.50;60.60;;;;;;4976455;28;20016;-48
2021/11/02 05:53:43;;;;;;;;;;;16.40;60.00;;;;;;4899730;29;20022;-51
2021/11/02 05:56:21;;;;;;;;;;;16.40;60.30;;;;;;4899397;29;19980;-50
2021/11/02 06:09:26;;;;;;;;;;;16.50;60.50;;;;;;4924678;29;19926;-47
2021/11/02 06:28:56;;;;;;;;;;;16.50;61.00;;;;;;4994791;28;19932;-47
2021/11/02 06:31:35;;;;;;;;;;;16.50;60.90;;;;;;4994919;28;20484;-47
2021/11/02 06:34:24;;;;;;;;;;;16.50;60.80;;;;;;4992769;28;19968;-47
2021/11/02 06:42:17;;;;;;;;;;;16.50;60.70;;;;;;4994337;28;19926;-52
2021/11/02 06:53:15;;;;;;;;;;;16.50;60.80;;;;;;4917187;29;19927;-50
2021/11/02 06:56:13;;;;;;;;;;;16.50;61.10;;;;;;4917350;29;19952;-45
2021/11/02 07:18:32;;;;;;;;;;;16.50;60.80;;;;;;4916892;29;19931;-52
2021/11/02 07:21:21;;;;;;;;;;;16.50;61.20;;;;;;4915925;29;19968;-47
2021/11/02 07:24:01;;;;;;;;;;;16.50;61.10;;;;;;4925777;28;19926;-47
2021/11/02 07:29:45;;;;;;;;;;;16.60;60.80;;;;;;4976483;28;19933;-50
2021/11/02 08:45:08;;;;;;;;;;;16.80;62.40;;;;;;4975041;28;19927;-46
2021/11/02 08:47:45;;;;;;;;;;;16.90;61.70;;;;;;4975039;28;20029;-47
2021/11/02 08:50:14;;;;;;;;;;;16.80;62.30;;;;;;4973360;28;20266;-46
2021/11/02 08:52:50;;;;;;;;;;;16.80;62.40;;;;;;4974898;28;20271;-47
2021/11/02 08:55:17;;;;;;;;;;;16.90;62.90;;;;;;4974543;28;19984;-48
2021/11/02 08:57:48;;;;;;;;;;;16.80;62.50;;;;;;4974946;28;19969;-49
2021/11/02 09:00:17;;;;;;;;;;;16.90;62.80;;;;;;4973649;28;19927;-47
2021/11/02 09:02:53;;;;;;;;;;;16.90;62.70;;;;;;4974878;28;20009;-50
2021/11/02 09:05:23;;;;;;;;;;;16.90;62.20;;;;;;4973228;28;19969;-45
2021/11/02 09:07:54;;;;;;;;;;;16.90;62.20;;;;;;4974581;28;20393;-46
2021/11/02 09:10:22;;;;;;;;;;;16.90;62.10;;;;;;4974452;28;19953;-47
2021/11/02 09:12:50;;;;;;;;;;;16.90;62.00;;;;;;4974485;28;19926;-46
2021/11/02 09:15:21;;;;;;;;;;;16.90;62.70;;;;;;4974561;28;19927;-48
2021/11/02 09:17:51;;;;;;;;;;;17.00;63.10;;;;;;4974636;28;19926;-50
2021/11/02 09:20:18;;;;;;;;;;;17.00;62.80;;;;;;4972905;28;19985;-49
2021/11/02 09:22:46;;;;;;;;;;;17.00;62.50;;;;;;4974744;28;20419;-51
2021/11/02 09:25:13;;;;;;;;;;;17.00;62.10;;;;;;4989250;28;20009;-48
2021/11/02 09:27:42;;;;;;;;;;;17.00;62.50;;;;;;4989437;28;19973;-47
2021/11/02 09:30:10;;;;;;;;;;;17.00;62.50;;;;;;4974458;28;19930;-48
2021/11/02 09:32:37;;;;;;;;;;;17.00;62.60;;;;;;4974858;28;20300;-45
2021/11/02 09:35:04;;;;;;;;;;;17.00;62.40;;;;;;4974830;28;20017;-46
2021/11/02 09:37:35;;;;;;;;;;;17.00;62.20;;;;;;4973105;28;19926;-49
2021/11/02 09:40:41;;;;;;;;;;;17.00;62.10;;;;;;4974708;28;19930;-48
2021/11/02 09:43:19;;;;;;;;;;;17.00;62.30;;;;;;4974626;28;19961;-50
2021/11/02 09:45:47;;;;;;;;;;;17.10;62.20;;;;;;4973330;28;20420;-52
2021/11/02 09:48:32;;;;;;;;;;;17.10;62.20;;;;;;4974400;28;19944;-50
2021/11/02 09:51:18;;;;;;;;;;;17.10;61.90;;;;;;4976227;28;19989;-45
2021/11/02 09:54:05;;;;;;;;;;;17.10;61.80;;;;;;4977342;28;19961;-50
2021/11/02 09:56:37;;;;;;;;;;;17.10;61.80;;;;;;4978088;28;19926;-48
2021/11/02 09:59:34;;;;;;;;;;;17.10;62.10;;;;;;4977745;28;19950;-47
2021/11/02 10:02:16;;;;;;;;;;;17.10;61.70;;;;;;4977974;28;19930;-46
2021/11/02 10:04:55;;;;;;;;;;;17.10;62.50;;;;;;4977663;28;20456;-45
2021/11/02 10:07:35;;;;;;;;;;;17.10;62.20;;;;;;4975963;28;19981;-45
2021/11/02 10:10:09;;;;;;;;;;;17.10;62.20;;;;;;4977550;28;19981;-47
2021/11/02 10:12:42;;;;;;;;;;;17.20;62.10;;;;;;4977553;28;19926;-45
2021/11/02 10:15:10;;;;;;;;;;;17.20;62.10;;;;;;4977819;28;19926;-45
2021/11/02 10:17:57;;;;;;;;;;;17.20;61.70;;;;;;4992459;28;19930;-45
2021/11/02 10:20:42;;;;;;;;;;;17.20;61.70;;;;;;4977353;28;20369;-46
2021/11/02 10:23:17;;;;;;;;;;;17.20;62.20;;;;;;4975612;28;19926;-46
2021/11/02 10:26:00;;;;;;;;;;;17.20;62.10;;;;;;4977392;28;20374;-46
2021/11/02 10:28:29;;;;;;;;;;;17.30;62.00;;;;;;4977522;28;19953;-45
2021/11/02 10:30:59;;;;;;;;;;;17.30;61.50;;;;;;4977175;28;19981;-44
2021/11/02 10:33:34;;;;;;;;;;;17.30;62.00;;;;;;4977504;28;20274;-44
2021/11/02 10:36:39;;;;;;;;;;;17.30;61.90;;;;;;4976069;28;19965;-45
2021/11/02 10:39:25;;;;;;;;;;;17.30;62.20;;;;;;4936448;29;19973;-46
2021/11/02 10:41:54;;;;;;;;;;;17.30;61.80;;;;;;4937373;29;19926;-45
2021/11/02 10:44:41;;;;;;;;;;;17.30;62.20;;;;;;4936575;29;20403;-46
2021/11/02 10:47:16;;;;;;;;;;;17.30;61.80;;;;;;4936376;29;19930;-45
2021/11/02 10:49:49;;;;;;;;;;;17.40;61.70;;;;;;4936360;29;19926;-46
2021/11/02 10:52:25;;;;;;;;;;;17.40;61.80;;;;;;4934643;29;19930;-47
2021/11/02 10:55:12;;;;;;;;;;;17.40;61.40;;;;;;4935978;29;20375;-46
2021/11/02 10:57:45;;;;;;;;;;;17.40;61.50;;;;;;4889961;29;19934;-48
2021/11/02 11:00:12;;;;;;;;;;;17.40;61.60;;;;;;4935601;29;19927;-45
2021/11/02 11:02:43;;;;;;;;;;;17.40;61.10;;;;;;4935477;29;19927;-47
2021/11/02 11:05:10;;;;;;;;;;;17.40;61.40;;;;;;4936116;29;19977;-46
2021/11/02 11:07:43;;;;;;;;;;;17.50;61.20;;;;;;4934490;29;19984;-45
2021/11/02 11:10:11;;;;;;;;;;;17.40;61.30;;;;;;4949206;29;19926;-46
2021/11/02 11:12:43;;;;;;;;;;;17.50;61.30;;;;;;4957062;28;19985;-48
2021/11/02 11:15:10;;;;;;;;;;;17.50;61.40;;;;;;4957162;28;20385;-45
2021/11/02 11:17:44;;;;;;;;;;;17.50;60.80;;;;;;4957367;29;20013;-46
2021/11/02 11:20:13;;;;;;;;;;;17.50;61.10;;;;;;4957043;28;19974;-45
2021/11/02 11:22:41;;;;;;;;;;;17.50;61.10;;;;;;4965800;28;20346;-44
2021/11/02 11:25:10;;;;;;;;;;;17.50;61.10;;;;;;4976150;28;20393;-46
2021/11/02 11:27:43;;;;;;;;;;;17.60;61.30;;;;;;4976375;28;19926;-45
2021/11/02 11:30:11;;;;;;;;;;;17.60;60.70;;;;;;4976474;28;19926;-44
2021/11/02 11:32:39;;;;;;;;;;;17.60;60.90;;;;;;4976032;28;19989;-45
2021/11/02 11:35:08;;;;;;;;;;;17.60;60.80;;;;;;4975925;28;19926;-44
2021/11/02 11:37:40;;;;;;;;;;;17.60;60.50;;;;;;4974673;28;19949;-47
2021/11/02 11:40:09;;;;;;;;;;;17.60;60.80;;;;;;4976265;28;19926;-45
2021/11/02 11:42:37;;;;;;;;;;;17.70;60.70;;;;;;4976204;28;20005;-46
2021/11/02 11:45:24;;;;;;;;;;;17.70;61.10;;;;;;4976239;28;20008;-46
2021/11/02 11:48:11;;;;;;;;;;;17.60;60.50;;;;;;4976108;28;19926;-46
2021/11/02 11:50:41;;;;;;;;;;;17.60;61.00;;;;;;4975842;28;19926;-45
2021/11/02 11:53:09;;;;;;;;;;;17.60;60.60;;;;;;4973805;28;19930;-47
2021/11/02 11:55:40;;;;;;;;;;;17.60;60.50;;;;;;4974566;28;19930;-48
2021/11/02 11:58:07;;;;;;;;;;;17.60;60.50;;;;;;4975589;28;20016;-49
2021/11/02 12:00:36;;;;;;;;;;;17.60;60.60;;;;;;4975538;28;19930;-44
2021/11/02 12:03:16;;;;;;;;;;;17.60;61.20;;;;;;4975590;28;19926;-45
2021/11/02 12:05:44;;;;;;;;;;;17.60;60.50;;;;;;4975893;28;20004;-45
2021/11/02 12:08:22;;;;;;;;;;;17.60;61.10;;;;;;4974097;28;20028;-47
2021/11/02 12:10:50;;;;;;;;;;;17.50;61.10;;;;;;4975365;28;20374;-45
2021/11/02 12:13:18;;;;;;;;;;;17.60;61.30;;;;;;4975058;28;19927;-47
2021/11/02 12:16:00;;;;;;;;;;;17.60;61.10;;;;;;4975358;28;20449;-49
2021/11/02 12:18:28;;;;;;;;;;;17.60;61.40;;;;;;4975688;28;20305;-47
2021/11/02 12:20:56;;;;;;;;;;;17.50;61.40;;;;;;4975263;28;19969;-51
2021/11/02 12:23:37;;;;;;;;;;;17.60;61.40;;;;;;4973458;28;19930;-48
2021/11/02 12:26:04;;;;;;;;;;;17.60;60.80;;;;;;4975505;28;19980;-49
2021/11/02 12:28:36;;;;;;;;;;;17.50;60.80;;;;;;4975516;28;20346;-50
2021/11/02 12:31:04;;;;;;;;;;;17.60;60.90;;;;;;4975114;28;19974;-46
2021/11/02 12:33:33;;;;;;;;;;;17.60;60.80;;;;;;4975113;28;19926;-45
2021/11/02 12:36:03;;;;;;;;;;;17.60;60.60;;;;;;4974846;28;20282;-50
2021/11/02 12:38:33;;;;;;;;;;;17.60;60.60;;;;;;4973694;28;19926;-50
2021/11/02 12:41:00;;;;;;;;;;;17.60;60.90;;;;;;4974938;28;20013;-48
2021/11/02 12:43:30;;;;;;;;;;;17.60;60.40;;;;;;4975276;28;19926;-53
2021/11/02 12:46:01;;;;;;;;;;;17.60;60.10;;;;;;4975260;28;19976;-45
2021/11/02 12:48:29;;;;;;;;;;;17.60;60.60;;;;;;4974968;28;19930;-47
2021/11/02 12:51:12;;;;;;;;;;;17.60;60.70;;;;;;4974831;28;20381;-47
2021/11/02 12:53:41;;;;;;;;;;;17.70;60.60;;;;;;4972837;28;20021;-46
2021/11/02 12:56:16;;;;;;;;;;;17.70;60.50;;;;;;4974861;28;19973;-51
2021/11/02 12:58:44;;;;;;;;;;;17.70;60.70;;;;;;4975173;28;20346;-44
2021/11/02 13:01:11;;;;;;;;;;;17.70;60.60;;;;;;4974796;28;20444;-46
2021/11/02 13:03:43;;;;;;;;;;;17.70;61.00;;;;;;4975166;28;20277;-46
2021/11/02 13:06:10;;;;;;;;;;;17.70;60.80;;;;;;4974797;28;20449;-46
2021/11/02 13:08:41;;;;;;;;;;;17.70;60.80;;;;;;4973461;28;20301;-46
2021/11/02 13:11:13;;;;;;;;;;;17.70;60.60;;;;;;4974651;28;19930;-49
2021/11/02 13:13:55;;;;;;;;;;;17.70;60.70;;;;;;4975029;28;19962;-45
2021/11/02 13:16:23;;;;;;;;;;;17.80;61.10;;;;;;4974954;28;19926;-45
2021/11/02 13:18:51;;;;;;;;;;;17.80;60.70;;;;;;4974582;28;19926;-47
2021/11/02 13:21:30;;;;;;;;;;;17.80;60.30;;;;;;4974840;28;19977;-45
2021/11/02 13:24:04;;;;;;;;;;;17.80;60.30;;;;;;4972928;28;19926;-47
2021/11/02 13:26:32;;;;;;;;;;;17.90;60.10;;;;;;4978390;28;20385;-49
2021/11/02 13:29:18;;;;;;;;;;;17.90;60.40;;;;;;4978687;28;19985;-46
2021/11/02 13:31:49;;;;;;;;;;;17.90;60.10;;;;;;4978260;28;19973;-49
2021/11/02 13:34:17;;;;;;;;;;;17.90;59.70;;;;;;4979097;28;20382;-45
2021/11/02 13:36:44;;;;;;;;;;;17.90;59.90;;;;;;4978566;28;19981;-47
2021/11/02 13:39:15;;;;;;;;;;;18.00;60.10;;;;;;4976608;28;19969;-45
2021/11/02 13:41:45;;;;;;;;;;;18.00;59.80;;;;;;4978132;28;19932;-47
2021/11/02 13:44:12;;;;;;;;;;;18.00;59.80;;;;;;4978415;28;20009;-46
2021/11/02 13:46:41;;;;;;;;;;;18.00;60.00;;;;;;4978051;28;19934;-44
2021/11/02 13:49:09;;;;;;;;;;;18.00;59.40;;;;;;4978210;28;20356;-44
2021/11/02 13:51:37;;;;;;;;;;;18.00;59.70;;;;;;4978211;28;19927;-44
2021/11/02 13:54:05;;;;;;;;;;;18.00;59.90;;;;;;4975964;28;20374;-46
2021/11/02 13:56:34;;;;;;;;;;;17.90;59.60;;;;;;4978204;28;19926;-45
2021/11/02 13:59:03;;;;;;;;;;;17.90;59.90;;;;;;4978146;28;20365;-45
2021/11/02 14:01:47;;;;;;;;;;;17.90;59.70;;;;;;4978026;28;20270;-46
2021/11/02 14:04:17;;;;;;;;;;;17.90;59.80;;;;;;4978085;28;19933;-49
2021/11/02 14:06:45;;;;;;;;;;;17.80;60.20;;;;;;4977699;28;20025;-43
2021/11/02 14:09:13;;;;;;;;;;;17.80;59.80;;;;;;4976320;28;19930;-46
2021/11/02 14:11:41;;;;;;;;;;;17.80;59.80;;;;;;4977853;28;20290;-46
2021/11/02 14:14:27;;;;;;;;;;;17.80;60.00;;;;;;4977431;28;20301;-44
2021/11/02 14:16:55;;;;;;;;;;;17.70;60.00;;;;;;4977893;28;19968;-44
2021/11/02 14:19:34;;;;;;;;;;;17.70;60.10;;;;;;4977491;28;20377;-45
2021/11/02 14:22:05;;;;;;;;;;;17.70;60.20;;;;;;4977740;28;20274;-46
2021/11/02 14:24:37;;;;;;;;;;;17.70;60.30;;;;;;4975944;28;19981;-44
2021/11/02 14:27:05;;;;;;;;;;;17.70;60.60;;;;;;4977325;28;19926;-44
2021/11/02 14:29:48;;;;;;;;;;;17.70;60.80;;;;;;4977620;28;19930;-45
2021/11/02 14:32:34;;;;;;;;;;;17.70;60.80;;;;;;4978037;28;19926;-44
2021/11/02 14:35:02;;;;;;;;;;;17.70;60.50;;;;;;4977209;28;19932;-45
2021/11/02 14:37:44;;;;;;;;;;;17.60;60.00;;;;;;4977472;28;20016;-44
2021/11/02 14:40:25;;;;;;;;;;;17.70;60.50;;;;;;4975633;28;20021;-44
2021/11/02 14:42:56;;;;;;;;;;;17.70;60.00;;;;;;4977111;28;19926;-44
2021/11/02 14:45:42;;;;;;;;;;;17.70;60.60;;;;;;4976969;28;20382;-44
2021/11/02 14:48:27;;;;;;;;;;;17.70;60.10;;;;;;4977242;28;19934;-44
2021/11/02 14:50:57;;;;;;;;;;;17.70;59.90;;;;;;4977234;28;20357;-45
2021/11/02 14:53:35;;;;;;;;;;;17.70;60.20;;;;;;4976616;28;20009;-46
2021/11/02 14:56:09;;;;;;;;;;;17.60;59.80;;;;;;4975412;28;19926;-46
2021/11/02 14:58:40;;;;;;;;;;;17.60;60.10;;;;;;4976774;28;19927;-48
2021/11/02 15:01:13;;;;;;;;;;;17.60;60.20;;;;;;4977049;28;19926;-44
2021/11/02 15:04:01;;;;;;;;;;;17.60;60.00;;;;;;4977007;28;19941;-44
2021/11/02 15:06:36;;;;;;;;;;;17.60;60.70;;;;;;4976220;28;19957;-46
2021/11/02 15:09:07;;;;;;;;;;;17.60;60.70;;;;;;4975020;28;19926;-46
2021/11/02 15:11:34;;;;;;;;;;;17.50;60.80;;;;;;4976824;28;19973;-46
2021/11/02 15:14:04;;;;;;;;;;;17.50;60.60;;;;;;4977323;28;19973;-46
2021/11/02 15:16:31;;;;;;;;;;;17.50;60.70;;;;;;4977577;28;20340;-45
2021/11/02 15:19:03;;;;;;;;;;;17.50;60.70;;;;;;4976397;28;19977;-44
2021/11/02 15:21:34;;;;;;;;;;;17.50;60.80;;;;;;4976666;28;20301;-45
2021/11/02 15:24:06;;;;;;;;;;;17.40;61.40;;;;;;4975464;28;19926;-47
2021/11/02 15:27:05;;;;;;;;;;;17.40;61.20;;;;;;4957507;28;19926;-48
2021/11/02 15:29:52;;;;;;;;;;;17.40;60.90;;;;;;4954899;29;19981;-45
2021/11/02 15:32:21;;;;;;;;;;;17.40;61.50;;;;;;4938768;29;19958;-45
2021/11/02 15:34:55;;;;;;;;;;;17.40;61.60;;;;;;4954995;29;19958;-44
2021/11/02 15:37:28;;;;;;;;;;;17.40;61.80;;;;;;4954772;29;20278;-46
2021/11/02 15:39:55;;;;;;;;;;;17.40;61.90;;;;;;4959148;28;19926;-44
2021/11/02 15:42:22;;;;;;;;;;;17.30;62.00;;;;;;4973978;28;19977;-44
2021/11/02 15:44:56;;;;;;;;;;;17.30;61.90;;;;;;4974690;28;19961;-46
2021/11/02 15:47:27;;;;;;;;;;;17.30;62.30;;;;;;4973399;28;20029;-44
2021/11/02 15:49:58;;;;;;;;;;;17.30;62.60;;;;;;4973835;28;19926;-46
2021/11/02 15:52:33;;;;;;;;;;;17.30;62.50;;;;;;4973738;28;19926;-43
2021/11/02 15:55:03;;;;;;;;;;;17.30;62.60;;;;;;4971509;28;19930;-46
2021/11/02 15:57:56;;;;;;;;;;;17.20;62.70;;;;;;4973729;28;19926;-45
2021/11/02 16:00:28;;;;;;;;;;;17.20;62.70;;;;;;4972830;28;19930;-48
2021/11/02 16:02:56;;;;;;;;;;;17.20;62.90;;;;;;4973568;28;20464;-45
2021/11/02 16:05:24;;;;;;;;;;;17.20;62.80;;;;;;4974068;28;20382;-44
2021/11/02 16:07:54;;;;;;;;;;;17.20;62.80;;;;;;4975500;28;19933;-47
2021/11/02 16:10:26;;;;;;;;;;;17.10;63.10;;;;;;4974154;28;20071;-46
2021/11/02 16:12:53;;;;;;;;;;;17.10;63.10;;;;;;4974230;28;19926;-44
2021/11/02 16:15:27;;;;;;;;;;;17.10;63.20;;;;;;4975412;28;19957;-47
2021/11/02 16:17:55;;;;;;;;;;;17.10;63.10;;;;;;4975630;28;20333;-46
2021/11/02 16:20:25;;;;;;;;;;;17.10;63.20;;;;;;4990530;28;19927;-46
2021/11/02 16:22:55;;;;;;;;;;;17.00;63.20;;;;;;4975397;28;19926;-48
2021/11/02 16:25:40;;;;;;;;;;;17.00;63.40;;;;;;4974179;28;19949;-51
2021/11/02 16:28:12;;;;;;;;;;;17.00;63.70;;;;;;4975199;28;19981;-45
2021/11/02 16:30:41;;;;;;;;;;;17.00;63.50;;;;;;4975502;28;19949;-45
2021/11/02 16:33:09;;;;;;;;;;;17.00;63.70;;;;;;4975359;28;20016;-45
2021/11/02 16:35:43;;;;;;;;;;;17.00;63.00;;;;;;4974260;28;19933;-45
2021/11/02 16:38:17;;;;;;;;;;;17.00;63.30;;;;;;4975066;28;19984;-47
2021/11/02 16:40:48;;;;;;;;;;;16.90;63.00;;;;;;4973377;28;19980;-47
2021/11/02 16:43:15;;;;;;;;;;;17.00;63.50;;;;;;4975351;28;20016;-47
2021/11/02 16:45:47;;;;;;;;;;;17.00;62.90;;;;;;4975326;28;20341;-48
2021/11/02 16:48:15;;;;;;;;;;;17.00;63.20;;;;;;4975317;28;20361;-47
2021/11/02 16:50:42;;;;;;;;;;;17.00;62.60;;;;;;4974969;28;19933;-49
2021/11/02 16:53:09;;;;;;;;;;;16.90;62.40;;;;;;4989429;28;19926;-45
2021/11/02 16:55:36;;;;;;;;;;;16.90;61.80;;;;;;4974213;28;20337;-47
2021/11/02 16:58:15;;;;;;;;;;;16.90;63.10;;;;;;4975290;28;19977;-46
2021/11/02 17:00:42;;;;;;;;;;;16.90;61.90;;;;;;4993779;28;19934;-47
2021/11/02 17:03:13;;;;;;;;;;;16.90;62.10;;;;;;4990975;28;19936;-51
2021/11/02 17:05:44;;;;;;;;;;;16.90;61.50;;;;;;4979027;28;20005;-48
2021/11/02 17:08:12;;;;;;;;;;;16.90;61.80;;;;;;4978682;28;20436;-51
2021/11/02 17:10:52;;;;;;;;;;;16.90;62.80;;;;;;4977548;28;19930;-50
2021/11/02 17:13:23;;;;;;;;;;;16.90;62.70;;;;;;4978695;28;20024;-48
2021/11/02 17:15:51;;;;;;;;;;;16.90;62.40;;;;;;4977951;28;20409;-44
2021/11/02 17:18:23;;;;;;;;;;;16.90;62.80;;;;;;4978312;28;19929;-43
2021/11/02 17:21:00;;;;;;;;;;;16.90;62.30;;;;;;4974840;28;20356;-43
2021/11/02 17:23:27;;;;;;;;;;;16.90;63.00;;;;;;4978175;28;19976;-43
2021/11/02 17:25:54;;;;;;;;;;;17.00;63.20;;;;;;4974377;28;19926;-43
2021/11/02 17:28:21;;;;;;;;;;;17.00;63.00;;;;;;4976105;28;21153;-43
2021/11/02 17:30:48;;;;;;;;;;;17.10;62.80;;;;;;4978698;28;19972;-43
2021/11/02 17:33:16;;;;;;;;;;;17.10;62.70;;;;;;4978037;28;19976;-43
2021/11/02 17:35:49;;;;;;;;;;;17.20;62.70;;;;;;4977673;28;19926;-43
2021/11/02 17:38:16;;;;;;;;;;;17.20;62.80;;;;;;4972728;28;19930;-43
2021/11/02 17:40:43;;;;;;;;;;;17.30;62.90;;;;;;4974092;28;20333;-48
2021/11/02 17:43:10;;;;;;;;;;;17.30;62.80;;;;;;4978172;28;19926;-48
2021/11/02 17:45:37;;;;;;;;;;;17.30;62.90;;;;;;4977993;28;19976;-47
2021/11/02 17:48:05;;;;;;;;;;;17.40;63.00;;;;;;4978050;28;20341;-47
2021/11/02 17:50:33;;;;;;;;;;;17.40;62.90;;;;;;4974402;28;19962;-49
2021/11/02 17:53:00;;;;;;;;;;;17.50;63.00;;;;;;4967352;28;20017;-48
2021/11/02 17:55:27;;;;;;;;;;;17.50;63.00;;;;;;4965692;28;19992;-46
2021/11/02 17:57:54;;;;;;;;;;;17.60;63.10;;;;;;4973996;28;19926;-48
2021/11/02 18:00:23;;;;;;;;;;;17.60;63.10;;;;;;4977803;28;20382;-47
2021/11/02 18:02:54;;;;;;;;;;;17.60;63.10;;;;;;4977923;28;19969;-43
2021/11/02 18:05:26;;;;;;;;;;;17.70;63.20;;;;;;4977769;28;19926;-43
2021/11/02 18:07:54;;;;;;;;;;;17.70;63.10;;;;;;4977743;28;19926;-42
2021/11/02 18:10:21;;;;;;;;;;;17.70;63.20;;;;;;4976664;28;19926;-43
2021/11/02 18:12:48;;;;;;;;;;;17.80;63.30;;;;;;4976228;28;20354;-43
2021/11/02 18:15:16;;;;;;;;;;;17.80;63.30;;;;;;4978150;28;19926;-43
2021/11/02 18:17:49;;;;;;;;;;;17.80;63.30;;;;;;4977765;28;19949;-43
2021/11/02 18:20:17;;;;;;;;;;;17.90;63.50;;;;;;4977233;28;19926;-43
2021/11/02 18:22:46;;;;;;;;;;;17.90;63.60;;;;;;4977244;28;19930;-43
2021/11/02 18:25:17;;;;;;;;;;;17.90;63.60;;;;;;4977171;28;19927;-44
2021/11/02 18:27:44;;;;;;;;;;;17.90;64.00;;;;;;4968734;28;19933;-43
2021/11/02 18:30:12;;;;;;;;;;;18.00;63.90;;;;;;4976891;28;19926;-44
2021/11/02 18:32:39;;;;;;;;;;;18.00;64.40;;;;;;4977174;28;20299;-44
2021/11/02 18:35:07;;;;;;;;;;;18.00;65.70;;;;;;4977419;28;19992;-45
2021/11/02 18:37:34;;;;;;;;;;;18.10;66.40;;;;;;4969029;28;19932;-41
2021/11/02 18:40:02;;;;;;;;;;;18.20;66.80;;;;;;4976681;28;19933;-40
2021/11/02 18:42:29;;;;;;;;;;;18.20;67.80;;;;;;4974928;28;19926;-40
2021/11/02 18:44:56;;;;;;;;;;;18.20;66.50;;;;;;4975729;28;20279;-40
2021/11/02 18:47:23;;;;;;;;;;;18.20;66.20;;;;;;4976326;28;19930;-40
2021/11/02 18:49:51;;;;;;;;;;;18.30;66.30;;;;;;4976425;28;19926;-40
2021/11/02 18:52:18;;;;;;;;;;;18.30;66.20;;;;;;4976876;28;20352;-40
2021/11/02 18:54:45;;;;;;;;;;;18.30;66.40;;;;;;4975987;28;20352;-40
2021/11/02 18:57:12;;;;;;;;;;;18.30;66.40;;;;;;4974913;28;19980;-40
2021/11/02 18:59:40;;;;;;;;;;;18.30;66.50;;;;;;4976516;28;20024;-40
2021/11/02 19:02:07;;;;;;;;;;;18.30;66.50;;;;;;4976030;28;19927;-40
2021/11/02 19:04:34;;;;;;;;;;;18.30;66.60;;;;;;4976016;28;19933;-44
2021/11/02 19:07:02;;;;;;;;;;;18.30;66.80;;;;;;4976045;28;19933;-47
2021/11/02 19:09:29;;;;;;;;;;;18.30;68.10;;;;;;4970168;28;20337;-50
2021/11/02 19:11:56;;;;;;;;;;;18.40;69.10;;;;;;4973311;28;19930;-44
2021/11/02 19:14:23;;;;;;;;;;;18.40;69.20;;;;;;4975990;28;19926;-44
2021/11/02 19:16:50;;;;;;;;;;;18.50;68.60;;;;;;4976157;28;20412;-45
2021/11/02 19:19:18;;;;;;;;;;;18.50;68.10;;;;;;4976264;28;19992;-45
2021/11/02 19:21:45;;;;;;;;;;;18.50;68.30;;;;;;4975296;28;20289;-46
2021/11/02 19:24:13;;;;;;;;;;;18.50;68.70;;;;;;4975897;28;20013;-44